sensor_id;sensor_type;location;lat;lon;timestamp;P1;durP1;ratioP1;P2;durP2;ratioP2
35897;SDS011;21997;47.118;15.346;2023-01-16T00:00:48;9.40;;;5.20;;
35897;SDS011;21997;47.118;15.346;2023-01-16T00:03:13;6.17;;;4.90;;
35897;SDS011;21997;47.118;15.346;2023-01-16T00:05:39;7.93;;;6.10;;
35897;SDS011;21997;47.118;15.346;2023-01-16T00:08:04;7.17;;;4.77;;
35897;SDS011;21997;47.118;15.346;2023-01-16T00:10:30;9.47;;;5.33;;
35897;SDS011;21997;47.118;15.346;2023-01-16T00:12:55;7.13;;;4.93;;
35897;SDS011;21997;47.118;15.346;2023-01-16T00:15:20;7.77;;;4.93;;
35897;SDS011;21997;47.118;15.346;2023-01-16T00:17:46;9.43;;;5.10;;
35897;SDS011;21997;47.118;15.346;2023-01-16T00:20:13;6.17;;;3.93;;
35897;SDS011;21997;47.118;15.346;2023-01-16T00:22:38;6.67;;;3.70;;
35897;SDS011;21997;47.118;15.346;2023-01-16T00:25:04;5.13;;;3.13;;
35897;SDS011;21997;47.118;15.346;2023-01-16T00:27:30;5.57;;;3.00;;
35897;SDS011;21997;47.118;15.346;2023-01-16T00:29:55;4.33;;;3.00;;
35897;SDS011;21997;47.118;15.346;2023-01-16T00:32:21;5.23;;;3.03;;
35897;SDS011;21997;47.118;15.346;2023-01-16T00:34:46;5.13;;;3.30;;
35897;SDS011;21997;47.118;15.346;2023-01-16T00:37:11;6.53;;;3.30;;
35897;SDS011;21997;47.118;15.346;2023-01-16T00:39:37;3.57;;;2.67;;
35897;SDS011;21997;47.118;15.346;2023-01-16T00:42:04;3.67;;;2.80;;
35897;SDS011;21997;47.118;15.346;2023-01-16T00:44:30;4.20;;;2.63;;
35897;SDS011;21997;47.118;15.346;2023-01-16T00:46:56;4.97;;;3.47;;
35897;SDS011;21997;47.118;15.346;2023-01-16T00:49:21;4.20;;;2.77;;
35897;SDS011;21997;47.118;15.346;2023-01-16T00:51:47;3.93;;;3.07;;
35897;SDS011;21997;47.118;15.346;2023-01-16T00:54:12;4.03;;;3.00;;
35897;SDS011;21997;47.118;15.346;2023-01-16T00:56:38;5.00;;;3.10;;
35897;SDS011;21997;47.118;15.346;2023-01-16T00:59:03;3.67;;;2.83;;
35897;SDS011;21997;47.118;15.346;2023-01-16T01:01:28;3.47;;;2.40;;
35897;SDS011;21997;47.118;15.346;2023-01-16T01:03:54;3.67;;;2.30;;
35897;SDS011;21997;47.118;15.346;2023-01-16T01:06:19;3.37;;;2.20;;
35897;SDS011;21997;47.118;15.346;2023-01-16T01:08:50;3.27;;;2.07;;
35897;SDS011;21997;47.118;15.346;2023-01-16T01:11:15;2.37;;;1.97;;
35897;SDS011;21997;47.118;15.346;2023-01-16T01:13:41;3.37;;;2.67;;
35897;SDS011;21997;47.118;15.346;2023-01-16T01:16:07;3.07;;;2.37;;
35897;SDS011;21997;47.118;15.346;2023-01-16T01:18:33;2.23;;;1.80;;
35897;SDS011;21997;47.118;15.346;2023-01-16T01:20:58;3.30;;;2.00;;
35897;SDS011;21997;47.118;15.346;2023-01-16T01:23:24;2.20;;;2.00;;
35897;SDS011;21997;47.118;15.346;2023-01-16T01:25:49;2.13;;;1.80;;
35897;SDS011;21997;47.118;15.346;2023-01-16T01:28:15;2.60;;;2.17;;
35897;SDS011;21997;47.118;15.346;2023-01-16T01:30:41;2.00;;;1.80;;
35897;SDS011;21997;47.118;15.346;2023-01-16T01:33:06;2.63;;;2.20;;
35897;SDS011;21997;47.118;15.346;2023-01-16T01:35:33;3.57;;;2.00;;
35897;SDS011;21997;47.118;15.346;2023-01-16T01:37:59;2.73;;;2.00;;
35897;SDS011;21997;47.118;15.346;2023-01-16T01:40:24;1.60;;;1.33;;
35897;SDS011;21997;47.118;15.346;2023-01-16T01:42:49;2.23;;;1.60;;
35897;SDS011;21997;47.118;15.346;2023-01-16T01:45:23;2.07;;;1.80;;
35897;SDS011;21997;47.118;15.346;2023-01-16T01:47:59;2.10;;;1.70;;
35897;SDS011;21997;47.118;15.346;2023-01-16T01:50:30;2.63;;;1.77;;
35897;SDS011;21997;47.118;15.346;2023-01-16T01:52:56;2.20;;;1.70;;
35897;SDS011;21997;47.118;15.346;2023-01-16T01:55:24;1.63;;;1.40;;
35897;SDS011;21997;47.118;15.346;2023-01-16T01:57:51;1.53;;;1.20;;
35897;SDS011;21997;47.118;15.346;2023-01-16T02:00:21;1.83;;;1.50;;
35897;SDS011;21997;47.118;15.346;2023-01-16T02:02:48;3.27;;;1.67;;
35897;SDS011;21997;47.118;15.346;2023-01-16T02:05:23;2.30;;;1.83;;
35897;SDS011;21997;47.118;15.346;2023-01-16T02:07:52;2.00;;;0.87;;
35897;SDS011;21997;47.118;15.346;2023-01-16T02:10:38;1.27;;;1.07;;
35897;SDS011;21997;47.118;15.346;2023-01-16T02:13:07;1.20;;;0.70;;
35897;SDS011;21997;47.118;15.346;2023-01-16T02:15:32;1.83;;;0.73;;
35897;SDS011;21997;47.118;15.346;2023-01-16T02:17:58;1.10;;;0.90;;
35897;SDS011;21997;47.118;15.346;2023-01-16T02:23:28;1.13;;;1.00;;
35897;SDS011;21997;47.118;15.346;2023-01-16T02:26:30;1.20;;;0.83;;
35897;SDS011;21997;47.118;15.346;2023-01-16T02:48:27;1.03;;;0.47;;
35897;SDS011;21997;47.118;15.346;2023-01-16T02:50:58;0.53;;;0.40;;
35897;SDS011;21997;47.118;15.346;2023-01-16T02:53:43;0.20;;;0.13;;
35897;SDS011;21997;47.118;15.346;2023-01-16T02:56:10;1.20;;;0.57;;
35897;SDS011;21997;47.118;15.346;2023-01-16T02:58:42;0.40;;;0.30;;
35897;SDS011;21997;47.118;15.346;2023-01-16T03:01:09;0.20;;;0.20;;
35897;SDS011;21997;47.118;15.346;2023-01-16T03:03:42;0.20;;;0.20;;
35897;SDS011;21997;47.118;15.346;2023-01-16T03:06:25;0.43;;;0.33;;
35897;SDS011;21997;47.118;15.346;2023-01-16T03:11:24;2.00;;;1.80;;
35897;SDS011;21997;47.118;15.346;2023-01-16T03:16:39;0.90;;;0.80;;
35897;SDS011;21997;47.118;15.346;2023-01-16T03:24:24;0.80;;;0.60;;
35897;SDS011;21997;47.118;15.346;2023-01-16T03:26:56;3.50;;;1.20;;
35897;SDS011;21997;47.118;15.346;2023-01-16T03:32:31;1.03;;;0.80;;
35897;SDS011;21997;47.118;15.346;2023-01-16T03:35:03;0.97;;;0.70;;
35897;SDS011;21997;47.118;15.346;2023-01-16T03:37:45;1.10;;;0.90;;
35897;SDS011;21997;47.118;15.346;2023-01-16T03:40:13;1.17;;;0.90;;
35897;SDS011;21997;47.118;15.346;2023-01-16T03:42:45;1.00;;;0.87;;
35897;SDS011;21997;47.118;15.346;2023-01-16T03:45:28;1.20;;;1.10;;
35897;SDS011;21997;47.118;15.346;2023-01-16T03:48:40;0.93;;;0.90;;
35897;SDS011;21997;47.118;15.346;2023-01-16T03:51:05;1.37;;;0.90;;
35897;SDS011;21997;47.118;15.346;2023-01-16T03:53:39;1.60;;;0.80;;
35897;SDS011;21997;47.118;15.346;2023-01-16T03:56:17;0.93;;;0.70;;
35897;SDS011;21997;47.118;15.346;2023-01-16T03:58:46;0.60;;;0.60;;
35897;SDS011;21997;47.118;15.346;2023-01-16T04:01:24;0.97;;;0.73;;
35897;SDS011;21997;47.118;15.346;2023-01-16T04:04:38;2.83;;;0.83;;
35897;SDS011;21997;47.118;15.346;2023-01-16T04:06:45;1.73;;;0.80;;
35897;SDS011;21997;47.118;15.346;2023-01-16T04:09:20;0.83;;;0.70;;
35897;SDS011;21997;47.118;15.346;2023-01-16T04:11:49;1.90;;;1.60;;
35897;SDS011;21997;47.118;15.346;2023-01-16T04:14:16;3.23;;;1.93;;
35897;SDS011;21997;47.118;15.346;2023-01-16T04:16:43;2.57;;;1.70;;
35897;SDS011;21997;47.118;15.346;2023-01-16T04:19:10;2.07;;;1.83;;
35897;SDS011;21997;47.118;15.346;2023-01-16T04:21:37;4.00;;;2.20;;
35897;SDS011;21997;47.118;15.346;2023-01-16T04:24:03;3.10;;;1.90;;
35897;SDS011;21997;47.118;15.346;2023-01-16T04:26:29;3.13;;;2.00;;
35897;SDS011;21997;47.118;15.346;2023-01-16T04:28:55;3.07;;;1.73;;
35897;SDS011;21997;47.118;15.346;2023-01-16T04:31:21;3.27;;;1.70;;
35897;SDS011;21997;47.118;15.346;2023-01-16T04:33:48;3.70;;;1.80;;
35897;SDS011;21997;47.118;15.346;2023-01-16T04:36:13;2.20;;;1.60;;
35897;SDS011;21997;47.118;15.346;2023-01-16T04:38:41;2.57;;;1.60;;
35897;SDS011;21997;47.118;15.346;2023-01-16T04:41:06;2.13;;;1.60;;
35897;SDS011;21997;47.118;15.346;2023-01-16T04:43:31;1.83;;;1.50;;
35897;SDS011;21997;47.118;15.346;2023-01-16T04:45:57;2.23;;;1.93;;
35897;SDS011;21997;47.118;15.346;2023-01-16T04:48:22;1.30;;;1.00;;
35897;SDS011;21997;47.118;15.346;2023-01-16T04:50:48;2.83;;;2.20;;
35897;SDS011;21997;47.118;15.346;2023-01-16T04:53:14;2.73;;;1.50;;
35897;SDS011;21997;47.118;15.346;2023-01-16T04:55:40;1.40;;;1.10;;
35897;SDS011;21997;47.118;15.346;2023-01-16T04:58:05;1.70;;;1.23;;
35897;SDS011;21997;47.118;15.346;2023-01-16T05:00:32;1.03;;;1.00;;
35897;SDS011;21997;47.118;15.346;2023-01-16T05:02:58;2.57;;;1.37;;
35897;SDS011;21997;47.118;15.346;2023-01-16T05:05:23;1.80;;;1.30;;
35897;SDS011;21997;47.118;15.346;2023-01-16T05:07:49;1.40;;;1.10;;
35897;SDS011;21997;47.118;15.346;2023-01-16T05:10:34;2.00;;;1.20;;
35897;SDS011;21997;47.118;15.346;2023-01-16T05:13:00;2.07;;;1.40;;
35897;SDS011;21997;47.118;15.346;2023-01-16T05:15:25;1.33;;;1.23;;
35897;SDS011;21997;47.118;15.346;2023-01-16T05:17:51;1.20;;;1.00;;
35897;SDS011;21997;47.118;15.346;2023-01-16T05:20:18;0.97;;;0.90;;
35897;SDS011;21997;47.118;15.346;2023-01-16T05:22:43;1.67;;;1.50;;
35897;SDS011;21997;47.118;15.346;2023-01-16T05:25:08;1.63;;;1.10;;
35897;SDS011;21997;47.118;15.346;2023-01-16T05:27:34;1.20;;;1.00;;
35897;SDS011;21997;47.118;15.346;2023-01-16T05:29:59;1.20;;;1.10;;
35897;SDS011;21997;47.118;15.346;2023-01-16T05:32:25;1.73;;;1.57;;
35897;SDS011;21997;47.118;15.346;2023-01-16T05:34:50;1.67;;;1.53;;
35897;SDS011;21997;47.118;15.346;2023-01-16T05:37:17;2.50;;;1.60;;
35897;SDS011;21997;47.118;15.346;2023-01-16T05:39:42;2.97;;;2.03;;
35897;SDS011;21997;47.118;15.346;2023-01-16T05:42:10;2.90;;;2.70;;
35897;SDS011;21997;47.118;15.346;2023-01-16T05:44:49;3.23;;;2.50;;
35897;SDS011;21997;47.118;15.346;2023-01-16T05:47:17;2.83;;;2.40;;
35897;SDS011;21997;47.118;15.346;2023-01-16T05:49:45;2.73;;;2.00;;
35897;SDS011;21997;47.118;15.346;2023-01-16T05:52:14;4.03;;;2.50;;
35897;SDS011;21997;47.118;15.346;2023-01-16T05:55:05;3.37;;;2.00;;
35897;SDS011;21997;47.118;15.346;2023-01-16T05:57:31;2.13;;;1.93;;
35897;SDS011;21997;47.118;15.346;2023-01-16T05:59:56;3.60;;;2.70;;
35897;SDS011;21997;47.118;15.346;2023-01-16T06:02:22;2.43;;;1.80;;
35897;SDS011;21997;47.118;15.346;2023-01-16T06:04:47;2.27;;;1.87;;
35897;SDS011;21997;47.118;15.346;2023-01-16T06:07:13;3.63;;;2.20;;
35897;SDS011;21997;47.118;15.346;2023-01-16T06:09:39;4.83;;;2.60;;
35897;SDS011;21997;47.118;15.346;2023-01-16T06:12:05;4.47;;;2.40;;
35897;SDS011;21997;47.118;15.346;2023-01-16T06:14:32;4.07;;;2.50;;
35897;SDS011;21997;47.118;15.346;2023-01-16T06:17:00;4.37;;;3.03;;
35897;SDS011;21997;47.118;15.346;2023-01-16T06:19:26;3.33;;;2.73;;
35897;SDS011;21997;47.118;15.346;2023-01-16T06:21:54;5.20;;;3.57;;
35897;SDS011;21997;47.118;15.346;2023-01-16T06:24:19;3.10;;;2.80;;
35897;SDS011;21997;47.118;15.346;2023-01-16T06:26:44;4.43;;;3.67;;
35897;SDS011;21997;47.118;15.346;2023-01-16T06:29:10;4.60;;;3.47;;
35897;SDS011;21997;47.118;15.346;2023-01-16T06:31:41;2.57;;;2.37;;
35897;SDS011;21997;47.118;15.346;2023-01-16T06:34:07;2.77;;;2.30;;
35897;SDS011;21997;47.118;15.346;2023-01-16T06:36:34;2.60;;;2.40;;
35897;SDS011;21997;47.118;15.346;2023-01-16T06:39:00;2.33;;;2.13;;
35897;SDS011;21997;47.118;15.346;2023-01-16T06:41:25;2.43;;;2.23;;
35897;SDS011;21997;47.118;15.346;2023-01-16T06:43:50;3.47;;;2.77;;
35897;SDS011;21997;47.118;15.346;2023-01-16T06:46:16;3.10;;;2.77;;
35897;SDS011;21997;47.118;15.346;2023-01-16T06:48:41;4.27;;;2.77;;
35897;SDS011;21997;47.118;15.346;2023-01-16T06:51:08;3.90;;;3.20;;
35897;SDS011;21997;47.118;15.346;2023-01-16T06:53:35;3.37;;;3.07;;
35897;SDS011;21997;47.118;15.346;2023-01-16T06:56:00;2.70;;;2.30;;
35897;SDS011;21997;47.118;15.346;2023-01-16T06:58:33;4.27;;;3.33;;
35897;SDS011;21997;47.118;15.346;2023-01-16T07:01:08;5.93;;;3.77;;
35897;SDS011;21997;47.118;15.346;2023-01-16T07:03:36;6.03;;;4.43;;
35897;SDS011;21997;47.118;15.346;2023-01-16T07:06:02;7.33;;;5.57;;
35897;SDS011;21997;47.118;15.346;2023-01-16T07:08:28;9.93;;;7.70;;
35897;SDS011;21997;47.118;15.346;2023-01-16T07:10:53;6.03;;;4.43;;
35897;SDS011;21997;47.118;15.346;2023-01-16T07:13:19;3.67;;;3.07;;
35897;SDS011;21997;47.118;15.346;2023-01-16T07:15:51;4.17;;;3.23;;
35897;SDS011;21997;47.118;15.346;2023-01-16T07:18:35;5.27;;;4.47;;
35897;SDS011;21997;47.118;15.346;2023-01-16T07:21:16;5.13;;;4.50;;
35897;SDS011;21997;47.118;15.346;2023-01-16T07:24:02;4.20;;;3.80;;
35897;SDS011;21997;47.118;15.346;2023-01-16T07:26:29;4.17;;;3.57;;
35897;SDS011;21997;47.118;15.346;2023-01-16T07:28:55;6.30;;;3.63;;
35897;SDS011;21997;47.118;15.346;2023-01-16T07:31:21;3.80;;;3.40;;
35897;SDS011;21997;47.118;15.346;2023-01-16T07:33:47;4.43;;;3.83;;
35897;SDS011;21997;47.118;15.346;2023-01-16T07:36:19;3.97;;;3.57;;
35897;SDS011;21997;47.118;15.346;2023-01-16T07:38:59;4.47;;;3.93;;
35897;SDS011;21997;47.118;15.346;2023-01-16T07:41:33;5.23;;;4.33;;
35897;SDS011;21997;47.118;15.346;2023-01-16T07:44:01;4.30;;;3.90;;
35897;SDS011;21997;47.118;15.346;2023-01-16T07:46:27;9.67;;;7.90;;
35897;SDS011;21997;47.118;15.346;2023-01-16T07:48:52;11.30;;;8.63;;
35897;SDS011;21997;47.118;15.346;2023-01-16T07:51:20;9.80;;;8.33;;
35897;SDS011;21997;47.118;15.346;2023-01-16T07:53:45;10.50;;;7.47;;
35897;SDS011;21997;47.118;15.346;2023-01-16T07:56:11;9.40;;;7.93;;
35897;SDS011;21997;47.118;15.346;2023-01-16T07:58:39;13.20;;;10.37;;
35897;SDS011;21997;47.118;15.346;2023-01-16T08:01:06;12.03;;;10.20;;
35897;SDS011;21997;47.118;15.346;2023-01-16T08:03:32;16.53;;;13.77;;
35897;SDS011;21997;47.118;15.346;2023-01-16T08:05:57;13.87;;;11.97;;
35897;SDS011;21997;47.118;15.346;2023-01-16T08:08:23;19.13;;;14.47;;
35897;SDS011;21997;47.118;15.346;2023-01-16T08:10:52;18.03;;;13.37;;
35897;SDS011;21997;47.118;15.346;2023-01-16T08:13:21;14.27;;;11.73;;
35897;SDS011;21997;47.118;15.346;2023-01-16T08:15:47;12.93;;;11.37;;
35897;SDS011;21997;47.118;15.346;2023-01-16T08:18:12;14.80;;;11.90;;
35897;SDS011;21997;47.118;15.346;2023-01-16T08:20:41;14.47;;;12.03;;
35897;SDS011;21997;47.118;15.346;2023-01-16T08:23:07;13.27;;;11.53;;
35897;SDS011;21997;47.118;15.346;2023-01-16T08:25:33;21.47;;;16.60;;
35897;SDS011;21997;47.118;15.346;2023-01-16T08:27:58;23.50;;;17.67;;
35897;SDS011;21997;47.118;15.346;2023-01-16T08:30:24;22.17;;;16.57;;
35897;SDS011;21997;47.118;15.346;2023-01-16T08:32:49;17.27;;;13.63;;
35897;SDS011;21997;47.118;15.346;2023-01-16T08:35:14;18.23;;;11.20;;
35897;SDS011;21997;47.118;15.346;2023-01-16T08:37:47;13.80;;;9.27;;
35897;SDS011;21997;47.118;15.346;2023-01-16T08:40:13;13.73;;;9.93;;
35897;SDS011;21997;47.118;15.346;2023-01-16T08:42:39;13.40;;;10.13;;
35897;SDS011;21997;47.118;15.346;2023-01-16T08:45:23;18.90;;;13.10;;
35897;SDS011;21997;47.118;15.346;2023-01-16T08:48:07;16.50;;;11.63;;
35897;SDS011;21997;47.118;15.346;2023-01-16T08:50:52;17.80;;;13.27;;
35897;SDS011;21997;47.118;15.346;2023-01-16T08:53:36;18.17;;;13.57;;
35897;SDS011;21997;47.118;15.346;2023-01-16T08:56:08;20.43;;;15.93;;
35897;SDS011;21997;47.118;15.346;2023-01-16T08:58:36;23.40;;;17.03;;
35897;SDS011;21997;47.118;15.346;2023-01-16T09:01:04;17.00;;;14.20;;
35897;SDS011;21997;47.118;15.346;2023-01-16T09:03:30;16.57;;;12.67;;
35897;SDS011;21997;47.118;15.346;2023-01-16T09:05:55;12.10;;;10.17;;
35897;SDS011;21997;47.118;15.346;2023-01-16T09:08:21;11.47;;;9.57;;
35897;SDS011;21997;47.118;15.346;2023-01-16T09:10:46;11.77;;;9.43;;
35897;SDS011;21997;47.118;15.346;2023-01-16T09:13:32;10.00;;;9.00;;
35897;SDS011;21997;47.118;15.346;2023-01-16T09:16:20;9.83;;;8.20;;
35897;SDS011;21997;47.118;15.346;2023-01-16T09:18:47;12.93;;;8.83;;
35897;SDS011;21997;47.118;15.346;2023-01-16T09:21:12;11.47;;;8.33;;
35897;SDS011;21997;47.118;15.346;2023-01-16T09:23:38;10.50;;;8.07;;
35897;SDS011;21997;47.118;15.346;2023-01-16T09:26:03;12.80;;;8.10;;
35897;SDS011;21997;47.118;15.346;2023-01-16T09:28:29;10.80;;;8.70;;
35897;SDS011;21997;47.118;15.346;2023-01-16T09:30:54;10.33;;;8.03;;
35897;SDS011;21997;47.118;15.346;2023-01-16T09:33:20;9.53;;;7.53;;
35897;SDS011;21997;47.118;15.346;2023-01-16T09:35:45;11.00;;;7.83;;
35897;SDS011;21997;47.118;15.346;2023-01-16T09:38:10;12.53;;;8.67;;
35897;SDS011;21997;47.118;15.346;2023-01-16T09:40:36;9.07;;;7.00;;
35897;SDS011;21997;47.118;15.346;2023-01-16T09:45:49;9.53;;;7.63;;
35897;SDS011;21997;47.118;15.346;2023-01-16T09:48:18;11.53;;;7.40;;
35897;SDS011;21997;47.118;15.346;2023-01-16T09:50:49;9.30;;;7.17;;
35897;SDS011;21997;47.118;15.346;2023-01-16T09:53:21;10.47;;;8.03;;
35897;SDS011;21997;47.118;15.346;2023-01-16T09:56:18;17.00;;;12.33;;
35897;SDS011;21997;47.118;15.346;2023-01-16T09:59:16;18.10;;;12.93;;
35897;SDS011;21997;47.118;15.346;2023-01-16T10:01:44;22.93;;;16.20;;
35897;SDS011;21997;47.118;15.346;2023-01-16T10:04:29;25.43;;;17.10;;
35897;SDS011;21997;47.118;15.346;2023-01-16T10:09:42;14.40;;;10.83;;
35897;SDS011;21997;47.118;15.346;2023-01-16T10:12:34;13.93;;;10.97;;
35897;SDS011;21997;47.118;15.346;2023-01-16T10:15:09;16.03;;;11.23;;
35897;SDS011;21997;47.118;15.346;2023-01-16T10:26:17;19.77;;;15.77;;
35897;SDS011;21997;47.118;15.346;2023-01-16T10:31:48;23.30;;;14.90;;
35897;SDS011;21997;47.118;15.346;2023-01-16T10:34:21;19.57;;;14.27;;
35897;SDS011;21997;47.118;15.346;2023-01-16T10:36:51;19.03;;;13.27;;
35897;SDS011;21997;47.118;15.346;2023-01-16T10:39:19;21.30;;;13.43;;
35897;SDS011;21997;47.118;15.346;2023-01-16T10:41:54;17.53;;;12.17;;
35897;SDS011;21997;47.118;15.346;2023-01-16T10:45:14;19.20;;;12.47;;
35897;SDS011;21997;47.118;15.346;2023-01-16T10:47:57;21.03;;;13.60;;
35897;SDS011;21997;47.118;15.346;2023-01-16T10:50:41;26.73;;;17.87;;
35897;SDS011;21997;47.118;15.346;2023-01-16T10:53:08;28.17;;;17.73;;
35897;SDS011;21997;47.118;15.346;2023-01-16T10:55:34;25.47;;;17.40;;
35897;SDS011;21997;47.118;15.346;2023-01-16T11:00:54;23.13;;;15.33;;
35897;SDS011;21997;47.118;15.346;2023-01-16T11:06:07;25.70;;;18.40;;
35897;SDS011;21997;47.118;15.346;2023-01-16T11:08:35;24.47;;;17.70;;
35897;SDS011;21997;47.118;15.346;2023-01-16T11:11:01;20.90;;;16.10;;
35897;SDS011;21997;47.118;15.346;2023-01-16T11:13:27;17.27;;;14.53;;
35897;SDS011;21997;47.118;15.346;2023-01-16T11:18:56;15.13;;;12.20;;
35897;SDS011;21997;47.118;15.346;2023-01-16T11:21:23;14.53;;;11.50;;
35897;SDS011;21997;47.118;15.346;2023-01-16T11:23:56;14.37;;;11.10;;
35897;SDS011;21997;47.118;15.346;2023-01-16T11:26:23;16.00;;;11.77;;
35897;SDS011;21997;47.118;15.346;2023-01-16T11:28:49;13.17;;;10.17;;
35897;SDS011;21997;47.118;15.346;2023-01-16T11:31:25;14.20;;;10.90;;
35897;SDS011;21997;47.118;15.346;2023-01-16T11:33:56;13.67;;;10.70;;
35897;SDS011;21997;47.118;15.346;2023-01-16T11:36:26;14.03;;;10.73;;
35897;SDS011;21997;47.118;15.346;2023-01-16T11:38:54;13.07;;;9.60;;
35897;SDS011;21997;47.118;15.346;2023-01-16T11:41:23;11.03;;;9.03;;
35897;SDS011;21997;47.118;15.346;2023-01-16T11:46:58;9.87;;;7.50;;
35897;SDS011;21997;47.118;15.346;2023-01-16T11:49:25;11.90;;;7.50;;
35897;SDS011;21997;47.118;15.346;2023-01-16T11:51:53;8.97;;;7.83;;
35897;SDS011;21997;47.118;15.346;2023-01-16T11:54:22;8.30;;;6.83;;
35897;SDS011;21997;47.118;15.346;2023-01-16T11:56:56;10.30;;;7.67;;
35897;SDS011;21997;47.118;15.346;2023-01-16T12:16:46;7.97;;;6.47;;
35897;SDS011;21997;47.118;15.346;2023-01-16T12:22:22;9.20;;;7.13;;
35897;SDS011;21997;47.118;15.346;2023-01-16T12:35:26;22.00;;;17.50;;
35897;SDS011;21997;47.118;15.346;2023-01-16T12:38:04;16.13;;;11.87;;
35897;SDS011;21997;47.118;15.346;2023-01-16T12:40:44;14.37;;;10.40;;
35897;SDS011;21997;47.118;15.346;2023-01-16T12:45:59;7.87;;;7.07;;
35897;SDS011;21997;47.118;15.346;2023-01-16T12:56:22;8.07;;;6.50;;
35897;SDS011;21997;47.118;15.346;2023-01-16T12:58:54;10.77;;;7.90;;
35897;SDS011;21997;47.118;15.346;2023-01-16T13:01:30;7.20;;;5.37;;
35897;SDS011;21997;47.118;15.346;2023-01-16T13:04:00;5.73;;;4.67;;
35897;SDS011;21997;47.118;15.346;2023-01-16T13:09:03;6.27;;;4.30;;
35897;SDS011;21997;47.118;15.346;2023-01-16T13:11:38;5.07;;;3.73;;
35897;SDS011;21997;47.118;15.346;2023-01-16T13:14:29;5.30;;;3.73;;
35897;SDS011;21997;47.118;15.346;2023-01-16T13:17:05;5.03;;;3.93;;
35897;SDS011;21997;47.118;15.346;2023-01-16T13:19:36;7.27;;;5.57;;
35897;SDS011;21997;47.118;15.346;2023-01-16T13:24:46;11.00;;;9.60;;
35897;SDS011;21997;47.118;15.346;2023-01-16T13:27:17;6.63;;;4.97;;
35897;SDS011;21997;47.118;15.346;2023-01-16T13:29:59;5.27;;;4.70;;
35897;SDS011;21997;47.118;15.346;2023-01-16T13:32:32;15.20;;;8.40;;
35897;SDS011;21997;47.118;15.346;2023-01-16T13:35:03;9.77;;;7.80;;
35897;SDS011;21997;47.118;15.346;2023-01-16T13:42:51;18.83;;;10.97;;
35897;SDS011;21997;47.118;15.346;2023-01-16T13:45:40;17.83;;;10.83;;
35897;SDS011;21997;47.118;15.346;2023-01-16T13:48:18;16.90;;;10.70;;
35897;SDS011;21997;47.118;15.346;2023-01-16T13:50:59;19.60;;;12.03;;
35897;SDS011;21997;47.118;15.346;2023-01-16T13:53:25;9.63;;;7.43;;
35897;SDS011;21997;47.118;15.346;2023-01-16T13:56:03;11.47;;;7.27;;
35897;SDS011;21997;47.118;15.346;2023-01-16T13:58:37;7.43;;;5.17;;
35897;SDS011;21997;47.118;15.346;2023-01-16T14:01:04;8.67;;;6.37;;
35897;SDS011;21997;47.118;15.346;2023-01-16T14:03:34;6.07;;;5.47;;
35897;SDS011;21997;47.118;15.346;2023-01-16T14:11:31;8.20;;;4.63;;
35897;SDS011;21997;47.118;15.346;2023-01-16T14:17:15;5.47;;;4.50;;
35897;SDS011;21997;47.118;15.346;2023-01-16T14:19:50;14.37;;;8.60;;
35897;SDS011;21997;47.118;15.346;2023-01-16T14:22:21;9.70;;;5.80;;
35897;SDS011;21997;47.118;15.346;2023-01-16T14:24:51;5.93;;;5.30;;
35897;SDS011;21997;47.118;15.346;2023-01-16T14:27:19;7.00;;;4.43;;
35897;SDS011;21997;47.118;15.346;2023-01-16T14:29:56;4.97;;;4.43;;
35897;SDS011;21997;47.118;15.346;2023-01-16T14:32:25;5.40;;;4.40;;
35897;SDS011;21997;47.118;15.346;2023-01-16T14:34:58;4.73;;;4.23;;
35897;SDS011;21997;47.118;15.346;2023-01-16T14:37:39;4.37;;;3.97;;
35897;SDS011;21997;47.118;15.346;2023-01-16T14:42:52;4.47;;;3.70;;
35897;SDS011;21997;47.118;15.346;2023-01-16T14:45:39;3.83;;;3.43;;
35897;SDS011;21997;47.118;15.346;2023-01-16T14:54:11;4.00;;;3.50;;
35897;SDS011;21997;47.118;15.346;2023-01-16T14:59:34;8.63;;;6.90;;
35897;SDS011;21997;47.118;15.346;2023-01-16T15:04:59;7.33;;;5.90;;
35897;SDS011;21997;47.118;15.346;2023-01-16T15:07:38;7.30;;;6.57;;
35897;SDS011;21997;47.118;15.346;2023-01-16T15:13:16;10.53;;;7.70;;
35897;SDS011;21997;47.118;15.346;2023-01-16T15:15:53;12.73;;;8.33;;
35897;SDS011;21997;47.118;15.346;2023-01-16T15:18:21;9.40;;;8.10;;
35897;SDS011;21997;47.118;15.346;2023-01-16T15:21:15;6.93;;;5.80;;
35897;SDS011;21997;47.118;15.346;2023-01-16T15:24:02;2.47;;;2.10;;
35897;SDS011;21997;47.118;15.346;2023-01-16T15:26:36;1.77;;;1.57;;
35897;SDS011;21997;47.118;15.346;2023-01-16T15:31:42;0.90;;;0.80;;
35897;SDS011;21997;47.118;15.346;2023-01-16T15:36:41;0.73;;;0.70;;
35897;SDS011;21997;47.118;15.346;2023-01-16T15:41:37;1.47;;;1.10;;
35897;SDS011;21997;47.118;15.346;2023-01-16T15:44:23;1.43;;;0.90;;
35897;SDS011;21997;47.118;15.346;2023-01-16T15:50:32;1.43;;;1.10;;
35897;SDS011;21997;47.118;15.346;2023-01-16T15:53:05;1.47;;;1.20;;
35897;SDS011;21997;47.118;15.346;2023-01-16T15:55:35;2.00;;;1.53;;
35897;SDS011;21997;47.118;15.346;2023-01-16T15:58:11;1.60;;;1.50;;
35897;SDS011;21997;47.118;15.346;2023-01-16T16:00:39;1.63;;;1.40;;
35897;SDS011;21997;47.118;15.346;2023-01-16T16:05:46;1.40;;;1.30;;
35897;SDS011;21997;47.118;15.346;2023-01-16T16:08:17;1.43;;;1.20;;
35897;SDS011;21997;47.118;15.346;2023-01-16T16:10:47;1.77;;;1.43;;
35897;SDS011;21997;47.118;15.346;2023-01-16T16:13:32;2.23;;;1.50;;
35897;SDS011;21997;47.118;15.346;2023-01-16T16:16:02;1.77;;;1.67;;
35897;SDS011;21997;47.118;15.346;2023-01-16T16:18:51;2.13;;;1.70;;
35897;SDS011;21997;47.118;15.346;2023-01-16T16:21:22;2.13;;;1.70;;
35897;SDS011;21997;47.118;15.346;2023-01-16T16:23:58;2.90;;;1.40;;
35897;SDS011;21997;47.118;15.346;2023-01-16T16:26:26;1.93;;;1.40;;
35897;SDS011;21997;47.118;15.346;2023-01-16T16:28:52;2.00;;;1.43;;
35897;SDS011;21997;47.118;15.346;2023-01-16T16:31:32;1.50;;;1.40;;
35897;SDS011;21997;47.118;15.346;2023-01-16T16:34:18;1.70;;;1.57;;
35897;SDS011;21997;47.118;15.346;2023-01-16T16:36:48;2.03;;;1.50;;
35897;SDS011;21997;47.118;15.346;2023-01-16T16:41:56;1.90;;;1.67;;
35897;SDS011;21997;47.118;15.346;2023-01-16T16:44:46;2.13;;;1.67;;
35897;SDS011;21997;47.118;15.346;2023-01-16T16:47:31;9.33;;;5.47;;
35897;SDS011;21997;47.118;15.346;2023-01-16T16:49:57;4.53;;;3.07;;
35897;SDS011;21997;47.118;15.346;2023-01-16T16:54:57;4.60;;;3.20;;
35897;SDS011;21997;47.118;15.346;2023-01-16T16:57:24;4.23;;;3.07;;
35897;SDS011;21997;47.118;15.346;2023-01-16T16:59:50;5.20;;;2.97;;
35897;SDS011;21997;47.118;15.346;2023-01-16T17:02:17;2.73;;;2.40;;
35897;SDS011;21997;47.118;15.346;2023-01-16T17:04:43;2.40;;;2.20;;
35897;SDS011;21997;47.118;15.346;2023-01-16T17:07:08;2.23;;;1.90;;
35897;SDS011;21997;47.118;15.346;2023-01-16T17:09:34;3.10;;;2.50;;
35897;SDS011;21997;47.118;15.346;2023-01-16T17:12:21;3.07;;;2.73;;
35897;SDS011;21997;47.118;15.346;2023-01-16T17:14:46;4.43;;;3.17;;
35897;SDS011;21997;47.118;15.346;2023-01-16T17:17:16;4.70;;;3.47;;
35897;SDS011;21997;47.118;15.346;2023-01-16T17:19:42;5.23;;;4.13;;
35897;SDS011;21997;47.118;15.346;2023-01-16T17:22:09;3.90;;;3.10;;
35897;SDS011;21997;47.118;15.346;2023-01-16T17:24:35;6.03;;;3.00;;
35897;SDS011;21997;47.118;15.346;2023-01-16T17:27:01;5.87;;;4.80;;
35897;SDS011;21997;47.118;15.346;2023-01-16T17:29:28;4.53;;;3.33;;